Time;durP1;ratioP1;P1;durP2;ratioP2;P2;SDS_P1;SDS_P2;PMS_P1;PMS_P2;Temp;Humidity;BMP_temperature;BMP_pressure;BME280_temperature;BME280_humidity;BME280_pressure;Samples;Min_cycle;Max_cycle;Signal;HPM_P1;HPM_P2
2022/01/09 19:07:02;;;;;;;3.37;3.17;;;;;;;-1.48;100.00;96034.31;5065947;27;20893;-49
2022/01/09 19:09:31;;;;;;;5.37;4.90;;;;;;;-1.48;100.00;96036.94;5054297;28;20492;-48
2022/01/09 19:11:59;;;;;;;5.40;4.87;;;;;;;-1.38;100.00;96044.69;5054813;28;20580;-52
2022/01/09 19:14:30;;;;;;;6.70;6.07;;;;;;;-1.39;100.00;96051.69;5056813;28;20554;-52
2022/01/09 19:16:59;;;;;;;9.80;7.65;;;;;;;-1.26;100.00;96037.59;5035085;28;20479;-52
2022/01/09 19:19:27;;;;;;;9.43;8.40;;;;;;;-1.35;100.00;96058.25;5039552;28;20208;-52
2022/01/09 19:21:55;;;;;;;9.33;8.33;;;;;;;-1.16;100.00;96056.56;5039635;28;20493;-53
2022/01/09 19:24:25;;;;;;;7.13;6.53;;;;;;;-1.19;100.00;96051.66;5038029;28;20454;-52
2022/01/09 19:26:54;;;;;;;7.97;6.93;;;;;;;-1.36;100.00;96063.56;5035792;28;20559;-52
2022/01/09 19:29:23;;;;;;;7.23;6.53;;;;;;;-1.32;100.00;96062.38;5030868;28;20481;-54
2022/01/09 19:31:51;;;;;;;6.37;5.83;;;;;;;-1.28;100.00;96068.94;5035304;28;20356;-54
2022/01/09 19:34:20;;;;;;;8.83;5.57;;;;;;;-1.06;100.00;96066.97;5034992;28;20203;-52
2022/01/09 19:36:49;;;;;;;6.27;5.23;;;;;;;-1.19;100.00;96075.88;5033627;28;20927;-52
2022/01/09 19:39:17;;;;;;;5.57;5.07;;;;;;;-1.04;100.00;96075.47;5032226;28;20494;-49
2022/01/09 19:41:47;;;;;;;8.07;5.37;;;;;;;-1.00;100.00;96091.63;5032509;28;20587;-50
2022/01/09 19:44:20;;;;;;;5.50;4.60;;;;;;;-1.04;100.00;96093.66;5034868;28;20532;-50
2022/01/09 19:46:48;;;;;;;6.00;4.57;;;;;;;-0.96;100.00;96090.38;5031731;28;20571;-48
2022/01/09 19:49:16;;;;;;;5.10;4.67;;;;;;;-1.00;100.00;96108.03;5034982;28;20458;-48
2022/01/09 19:51:44;;;;;;;5.70;5.17;;;;;;;-0.95;100.00;96103.22;5032476;28;21348;-50
2022/01/09 19:54:13;;;;;;;5.60;5.17;;;;;;;-0.88;100.00;96099.13;5033995;28;20516;-49
2022/01/09 19:56:41;;;;;;;6.17;5.60;;;;;;;-0.99;100.00;96114.06;5035015;28;20301;-49
2022/01/09 19:59:11;;;;;;;6.10;5.50;;;;;;;-0.95;100.00;96120.63;5032937;28;20940;-50
2022/01/09 20:01:39;;;;;;;6.40;5.87;;;;;;;-1.02;100.00;96112.53;5032315;28;20482;-48
2022/01/09 20:04:07;;;;;;;7.00;6.27;;;;;;;-0.90;100.00;96132.25;5033378;28;20863;-55
2022/01/09 20:06:38;;;;;;;7.40;6.70;;;;;;;-0.95;100.00;96131.81;5031247;28;20481;-53
2022/01/09 20:09:07;;;;;;;8.03;7.33;;;;;;;-0.92;100.00;96135.94;5032183;28;20998;-53
2022/01/09 20:11:35;;;;;;;13.30;10.23;;;;;;;-0.78;100.00;96134.69;5032166;28;20446;-50
2022/01/09 20:14:03;;;;;;;15.53;8.87;;;;;;;-0.77;100.00;96144.94;5031562;28;21000;-51
2022/01/09 20:16:33;;;;;;;8.17;7.47;;;;;;;-0.83;100.00;96139.50;5032352;28;20491;-50
2022/01/09 20:19:01;;;;;;;8.87;7.93;;;;;;;-0.74;100.00;96134.28;5020665;28;20328;-52
2022/01/09 20:21:29;;;;;;;7.97;7.17;;;;;;;-0.86;100.00;96144.97;5014209;28;20467;-47
2022/01/09 20:24:00;;;;;;;10.90;8.30;;;;;;;-0.80;100.00;96134.03;5017958;28;21053;-50
2022/01/09 20:26:29;;;;;;;7.90;7.17;;;;;;;-0.86;100.00;96129.38;5020612;28;20243;-50
2022/01/09 20:28:57;;;;;;;8.77;7.50;;;;;;;-0.82;100.00;96135.94;5021392;28;20550;-51
2022/01/09 20:31:26;;;;;;;7.73;7.07;;;;;;;-0.85;100.00;96138.81;5022670;28;20260;-49
2022/01/09 20:33:55;;;;;;;7.00;6.50;;;;;;;-0.94;100.00;96149.09;5021257;28;21385;-53
2022/01/09 20:36:25;;;;;;;7.47;6.20;;;;;;;-0.85;100.00;96151.81;5020890;28;20993;-49
2022/01/09 20:38:55;;;;;;;7.17;6.03;;;;;;;-0.82;100.00;96156.75;5020297;28;20521;-50
2022/01/09 20:41:23;;;;;;;8.33;6.40;;;;;;;-0.96;100.00;96158.78;5020209;28;20495;-49
2022/01/09 20:43:51;;;;;;;8.77;6.83;;;;;;;-0.78;100.00;96158.91;5020598;28;20209;-51
2022/01/09 20:46:20;;;;;;;6.70;6.03;;;;;;;-0.77;100.00;96155.34;5019586;28;20976;-53
2022/01/09 20:48:48;;;;;;;7.67;6.73;;;;;;;-0.85;100.00;96159.63;5020707;28;20920;-51
2022/01/09 20:51:18;;;;;;;5.73;5.10;;;;;;;-0.89;100.00;96161.66;5020561;28;20204;-51
2022/01/09 20:53:47;;;;;;;6.83;6.23;;;;;;;-0.82;100.00;96162.75;5021804;28;20552;-48
2022/01/09 20:56:15;;;;;;;8.23;7.43;;;;;;;-0.82;100.00;96151.56;5020111;28;20542;-49
2022/01/09 20:58:44;;;;;;;6.63;6.03;;;;;;;-0.96;100.00;96155.38;5017807;28;20524;-51
2022/01/09 21:01:12;;;;;;;8.47;6.07;;;;;;;-0.94;100.00;96159.50;5018295;28;20255;-50
2022/01/09 21:03:41;;;;;;;7.83;5.87;;;;;;;-0.92;100.00;96159.34;5019235;28;20471;-53
2022/01/09 21:06:10;;;;;;;5.73;5.23;;;;;;;-0.96;100.00;96160.59;5020499;28;20232;-52
2022/01/09 21:08:39;;;;;;;6.23;5.63;;;;;;;-1.06;100.00;96166.63;5021265;28;20988;-49
2022/01/09 21:11:07;;;;;;;7.37;6.27;;;;;;;-1.22;100.00;96161.94;5019347;28;20509;-48
2022/01/09 21:13:36;;;;;;;9.47;6.53;;;;;;;-1.19;100.00;96166.03;5018668;28;20463;-51
2022/01/09 21:16:04;;;;;;;6.47;5.90;;;;;;;-1.12;100.00;96171.53;5020989;28;21083;-48
2022/01/09 21:18:33;;;;;;;11.33;6.43;;;;;;;-1.13;100.00;96172.47;5020451;28;20546;-50
2022/01/09 21:21:01;;;;;;;6.03;5.53;;;;;;;-1.14;100.00;96179.44;5021564;28;20539;-48
2022/01/09 21:23:31;;;;;;;6.60;5.77;;;;;;;-1.08;100.00;96180.69;5021911;28;20519;-49
2022/01/09 21:26:00;;;;;;;5.90;5.33;;;;;;;-1.12;100.00;96179.31;5019215;28;20467;-52
2022/01/09 21:28:29;;;;;;;5.80;4.90;;;;;;;-1.10;100.00;96183.44;5018285;28;20509;-51
2022/01/09 21:30:57;;;;;;;5.50;5.10;;;;;;;-1.00;100.00;96187.81;5020525;28;20481;-49
2022/01/09 21:33:28;;;;;;;5.60;5.20;;;;;;;-1.04;100.00;96190.69;5020331;28;20964;-48
2022/01/09 21:35:56;;;;;;;5.77;5.10;;;;;;;-0.99;100.00;96189.47;5021655;28;20802;-51
2022/01/09 21:38:25;;;;;;;5.47;4.93;;;;;;;-1.10;100.00;96193.84;5019548;28;20460;-51
2022/01/09 21:40:53;;;;;;;5.73;5.20;;;;;;;-1.01;100.00;96210.38;5021770;28;20463;-51
2022/01/09 21:43:22;;;;;;;5.07;4.57;;;;;;;-1.00;100.00;96209.44;5022327;28;20975;-48
2022/01/09 21:45:51;;;;;;;4.43;4.03;;;;;;;-1.21;100.00;96214.75;5020126;28;20451;-48
2022/01/09 21:48:19;;;;;;;5.27;4.77;;;;;;;-1.15;100.00;96216.78;5022077;28;20458;-50
2022/01/09 21:50:47;;;;;;;5.77;4.23;;;;;;;-1.04;100.00;96216.69;5019937;28;20464;-52
2022/01/09 21:53:16;;;;;;;4.43;4.13;;;;;;;-0.96;100.00;96220.41;5020775;28;20553;-53
2022/01/09 21:55:44;;;;;;;6.93;4.80;;;;;;;-0.84;100.00;96223.69;5021321;28;20208;-51
2022/01/09 21:58:12;;;;;;;4.63;4.00;;;;;;;-0.79;100.00;96227.50;5021387;28;20556;-49
2022/01/09 22:00:42;;;;;;;5.17;4.77;;;;;;;-0.86;100.00;96223.81;5017263;28;20498;-52
2022/01/09 22:03:14;;;;;;;6.63;5.93;;;;;;;-0.76;100.00;96223.81;5018236;28;20997;-50
2022/01/09 22:05:45;;;;;;;5.00;4.60;;;;;;;-0.75;100.00;96228.91;5019269;28;20232;-54
2022/01/09 22:08:13;;;;;;;4.87;4.47;;;;;;;-0.71;100.00;96224.22;5018763;28;20513;-47
2022/01/09 22:10:42;;;;;;;3.87;3.60;;;;;;;-0.76;100.00;96236.84;5020108;28;20544;-52
2022/01/09 22:13:11;;;;;;;5.23;4.43;;;;;;;-0.69;100.00;96224.91;5018286;28;20876;-49
2022/01/09 22:15:39;;;;;;;6.10;4.77;;;;;;;-0.70;100.00;96231.06;5019387;28;21032;-52
2022/01/09 22:18:09;;;;;;;4.57;4.27;;;;;;;-0.72;100.00;96225.19;5019054;28;20471;-49
2022/01/09 22:20:39;;;;;;;5.53;4.37;;;;;;;-0.79;100.00;96235.31;5020888;28;20545;-50
2022/01/09 22:23:07;;;;;;;4.53;4.13;;;;;;;-0.84;100.00;96231.50;5018805;28;20965;-51
2022/01/09 22:25:35;;;;;;;6.23;5.27;;;;;;;-0.78;100.00;96236.16;5021375;28;21093;-48
2022/01/09 22:28:04;;;;;;;4.60;4.03;;;;;;;-0.57;100.00;96240.38;5018655;28;20224;-52
2022/01/09 22:30:32;;;;;;;4.97;4.57;;;;;;;-0.70;100.00;96235.47;5020937;28;20567;-48
2022/01/09 22:33:02;;;;;;;5.27;4.77;;;;;;;-0.79;100.00;96240.50;5020642;28;20545;-48
2022/01/09 22:35:32;;;;;;;5.67;5.10;;;;;;;-0.80;100.00;96235.47;5018790;28;20957;-50
2022/01/09 22:38:00;;;;;;;6.63;4.60;;;;;;;-0.75;100.00;96241.06;5020085;28;21201;-49
2022/01/09 22:40:29;;;;;;;5.23;4.83;;;;;;;-0.71;100.00;96255.44;5017798;28;20458;-51
2022/01/09 22:42:58;;;;;;;6.77;5.30;;;;;;;-0.77;100.00;96253.41;5019405;28;21397;-47
2022/01/09 22:45:29;;;;;;;6.03;5.47;;;;;;;-0.81;100.00;96255.44;5020256;28;20493;-44
2022/01/09 22:47:58;;;;;;;6.27;5.67;;;;;;;-0.84;100.00;96260.09;5016106;28;21001;-48
2022/01/09 22:50:27;;;;;;;6.07;5.37;;;;;;;-0.85;100.00;96261.06;5019750;28;20455;-45
2022/01/09 22:52:56;;;;;;;7.63;6.57;;;;;;;-0.97;100.00;96268.97;5019589;28;20463;-44
2022/01/09 22:55:25;;;;;;;6.87;6.17;;;;;;;-1.00;100.00;96273.63;5017055;28;20334;-48
2022/01/09 22:57:54;;;;;;;6.60;6.00;;;;;;;-0.97;100.00;96274.16;5020083;28;20538;-51
2022/01/09 23:00:30;;;;;;;6.53;5.93;;;;;;;-1.01;100.00;96280.59;5020173;28;20458;-51
2022/01/09 23:02:58;;;;;;;10.67;8.10;;;;;;;-1.09;100.00;96270.03;5019722;28;20835;-50
2022/01/09 23:05:27;;;;;;;7.67;6.57;;;;;;;-0.95;100.00;96276.66;5019539;28;20495;-51
2022/01/09 23:07:56;;;;;;;9.27;6.13;;;;;;;-0.99;100.00;96280.47;5020697;28;20734;-47
2022/01/09 23:10:25;;;;;;;7.27;6.67;;;;;;;-1.03;100.00;96283.34;5018860;28;20282;-48
2022/01/09 23:12:53;;;;;;;6.77;6.13;;;;;;;-1.00;100.00;96282.25;5020543;28;20463;-49
2022/01/09 23:15:21;;;;;;;6.87;6.23;;;;;;;-0.85;100.00;96287.06;5018972;28;20306;-49
2022/01/09 23:17:50;;;;;;;7.20;5.90;;;;;;;-0.92;100.00;96292.81;5019408;28;20237;-50
2022/01/09 23:20:20;;;;;;;5.93;5.43;;;;;;;-1.02;100.00;96282.38;5019851;28;20490;-49
2022/01/09 23:22:48;;;;;;;6.53;5.90;;;;;;;-1.08;100.00;96282.09;5020321;28;20228;-50
2022/01/09 23:25:24;;;;;;;6.17;5.67;;;;;;;-1.20;100.00;96290.00;5015557;28;20549;-52
2022/01/09 23:27:53;;;;;;;6.50;5.83;;;;;;;-1.13;100.00;96290.31;5017060;28;20243;-49
2022/01/09 23:30:21;;;;;;;5.77;5.10;;;;;;;-1.08;100.00;96288.13;5016290;28;20546;-52
2022/01/09 23:32:49;;;;;;;7.57;4.97;;;;;;;-1.08;100.00;96292.50;5019059;28;20556;-49
2022/01/09 23:35:17;;;;;;;5.73;5.17;;;;;;;-1.12;100.00;96294.56;5018384;28;21312;-50
2022/01/09 23:37:46;;;;;;;5.97;5.50;;;;;;;-0.88;100.00;96299.38;5017020;28;20526;-51
2022/01/09 23:40:18;;;;;;;6.73;5.37;;;;;;;-0.84;100.00;96296.53;5019605;28;20556;-49
2022/01/09 23:42:46;;;;;;;6.57;5.53;;;;;;;-0.98;100.00;96298.53;5020190;28;20205;-48
2022/01/09 23:45:18;;;;;;;6.43;5.87;;;;;;;-0.90;100.00;96295.25;5020035;28;20537;-49
2022/01/09 23:48:01;;;;;;;7.50;5.20;;;;;;;-0.84;100.00;96299.13;5018308;28;20228;-49
2022/01/09 23:50:29;;;;;;;6.07;5.57;;;;;;;-0.93;100.00;96300.75;5019113;28;20679;-49
2022/01/09 23:52:58;;;;;;;7.30;5.83;;;;;;;-1.02;100.00;96299.75;5020369;28;20286;-50
2022/01/09 23:55:32;;;;;;;29.30;17.77;;;;;;;-0.95;100.00;96306.06;5023843;28;20251;-50
2022/01/09 23:58:00;;;;;;;6.73;6.13;;;;;;;-0.95;100.00;96308.66;5023400;28;20741;-49
